Time;durP1;ratioP1;P1;durP2;ratioP2;P2;SDS_P1;SDS_P2;PMS_P1;PMS_P2;Temp;Humidity;BMP_temperature;BMP_pressure;BME280_temperature;BME280_humidity;BME280_pressure;Samples;Min_cycle;Max_cycle;Signal;HPM_P1;HPM_P2
2023/08/01 00:02:14;;;;;;;;;;;;;;;;;;6251841;28;19909;-87
2023/08/01 00:05:14;;;;;;;;;;;;;;;;;;6263151;28;20002;-74
2023/08/01 00:08:14;;;;;;;;;;;;;;;;;;6247297;28;19909;-74
2023/08/01 00:11:16;;;;;;;;;;;;;;;;;;6260152;28;20349;-75
2023/08/01 00:14:16;;;;;;;;;;;;;;;;;;6247293;28;19915;-74
2023/08/01 00:17:16;;;;;;;;;;;;;;;;;;6246900;28;19909;-74
2023/08/01 00:20:16;;;;;;;;;;;;;;;;;;6243085;28;19995;-74
2023/08/01 00:23:16;;;;;;;;;;;;;;;;;;6243725;28;20014;-74
2023/08/01 00:26:16;;;;;;;;;;;;;;;;;;6245130;28;19913;-74
2023/08/01 00:29:16;;;;;;;;;;;;;;;;;;6247881;28;19913;-74
2023/08/01 00:32:16;;;;;;;;;;;;;;;;;;6248838;28;19921;-74
2023/08/01 00:35:17;;;;;;;;;;;;;;;;;;6238758;28;19917;-74
2023/08/01 00:38:17;;;;;;;;;;;;;;;;;;6248107;28;19986;-74
2023/08/01 00:41:17;;;;;;;;;;;;;;;;;;6237237;28;19912;-74
2023/08/01 00:44:17;;;;;;;;;;;;;;;;;;6250157;28;19909;-74
2023/08/01 00:47:17;;;;;;;;;;;;;;;;;;6243664;28;19909;-75
2023/08/01 00:50:20;;;;;;;;;;;;;;;;;;6243423;28;19999;-74
2023/08/01 00:53:20;;;;;;;;;;;;;;;;;;6244010;28;19913;-74
2023/08/01 00:56:20;;;;;;;;;;;;;;;;;;6262910;28;19931;-82
2023/08/01 00:59:20;;;;;;;;;;;;;;;;;;6251170;28;19916;-86
2023/08/01 01:02:20;;;;;;;;;;;;;;;;;;6260860;28;19948;-81
2023/08/01 01:05:20;;;;;;;;;;;;;;;;;;6250839;28;19921;-84
2023/08/01 01:08:20;;;;;;;;;;;;;;;;;;6256971;28;19909;-84
2023/08/01 01:11:20;;;;;;;;;;;;;;;;;;6253444;28;19913;-86
2023/08/01 01:14:20;;;;;;;;;;;;;;;;;;6247711;28;20268;-82
2023/08/01 01:17:21;;;;;;;;;;;;;;;;;;6244967;28;19916;-74
2023/08/01 01:20:21;;;;;;;;;;;;;;;;;;6243982;28;19961;-75
2023/08/01 01:23:23;;;;;;;;;;;;;;;;;;6243141;28;20310;-74
2023/08/01 01:26:23;;;;;;;;;;;;;;;;;;6253849;28;19916;-75
2023/08/01 01:29:23;;;;;;;;;;;;;;;;;;6248098;28;20364;-74
2023/08/01 01:32:23;;;;;;;;;;;;;;;;;;6226024;28;19923;-74
2023/08/01 01:35:23;;;;;;;;;;;;;;;;;;6258907;28;19908;-74
2023/08/01 01:38:23;;;;;;;;;;;;;;;;;;6248939;28;19910;-75
2023/08/01 01:41:24;;;;;;;;;;;;;;;;;;6243590;28;19909;-74
2023/08/01 01:44:24;;;;;;;;;;;;;;;;;;6244606;28;19913;-74
2023/08/01 01:47:24;;;;;;;;;;;;;;;;;;6241922;28;20273;-74
2023/08/01 01:50:24;;;;;;;;;;;;;;;;;;6240454;28;20287;-74
2023/08/01 01:53:25;;;;;;;;;;;;;;;;;;6246736;28;19917;-74
2023/08/01 01:56:25;;;;;;;;;;;;;;;;;;6250260;28;19920;-74
2023/08/01 01:59:25;;;;;;;;;;;;;;;;;;6249533;28;19916;-74
2023/08/01 02:02:25;;;;;;;;;;;;;;;;;;6249919;28;20006;-75
2023/08/01 02:05:25;;;;;;;;;;;;;;;;;;6246024;28;19925;-75
2023/08/01 02:08:25;;;;;;;;;;;;;;;;;;6227361;28;19909;-75
2023/08/01 02:11:25;;;;;;;;;;;;;;;;;;6238375;28;19909;-75
2023/08/01 02:14:25;;;;;;;;;;;;;;;;;;6239730;28;19913;-75
2023/08/01 02:17:25;;;;;;;;;;;;;;;;;;6237511;28;19909;-75
2023/08/01 02:20:26;;;;;;;;;;;;;;;;;;6237621;28;19916;-73
2023/08/01 02:23:27;;;;;;;;;;;;;;;;;;6242626;28;19970;-74
2023/08/01 02:26:28;;;;;;;;;;;;;;;;;;6243257;28;19931;-74
2023/08/01 02:29:29;;;;;;;;;;;;;;;;;;6241418;28;19912;-74
2023/08/01 02:32:29;;;;;;;;;;;;;;;;;;6242553;28;19935;-74
2023/08/01 02:35:29;;;;;;;;;;;;;;;;;;6247641;28;19909;-84
2023/08/01 02:38:29;;;;;;;;;;;;;;;;;;6256921;28;19909;-85
2023/08/01 02:41:30;;;;;;;;;;;;;;;;;;6257604;28;19913;-83
2023/08/01 02:44:30;;;;;;;;;;;;;;;;;;6259498;28;19916;-86
2023/08/01 02:47:30;;;;;;;;;;;;;;;;;;6260486;28;19916;-85
2023/08/01 02:50:30;;;;;;;;;;;;;;;;;;6262205;28;19931;-85
2023/08/01 02:53:30;;;;;;;;;;;;;;;;;;6263584;28;19917;-85
2023/08/01 02:56:30;;;;;;;;;;;;;;;;;;6262599;28;19910;-86
2023/08/01 02:59:32;;;;;;;;;;;;;;;;;;6263624;28;19905;-86
2023/08/01 03:02:33;;;;;;;;;;;;;;;;;;6262993;28;19909;-86
2023/08/01 03:05:33;;;;;;;;;;;;;;;;;;6247127;28;20264;-84
2023/08/01 03:08:33;;;;;;;;;;;;;;;;;;6240902;28;19905;-85
2023/08/01 03:11:33;;;;;;;;;;;;;;;;;;6237929;28;19909;-85
2023/08/01 03:14:33;;;;;;;;;;;;;;;;;;6240429;28;19914;-84
2023/08/01 03:17:33;;;;;;;;;;;;;;;;;;6236127;28;20338;-83
2023/08/01 03:20:33;;;;;;;;;;;;;;;;;;6236917;28;19913;-82
2023/08/01 03:23:33;;;;;;;;;;;;;;;;;;6236233;28;20207;-83
2023/08/01 03:26:33;;;;;;;;;;;;;;;;;;6242274;28;19953;-83
2023/08/01 03:29:33;;;;;;;;;;;;;;;;;;6236921;28;19977;-82
2023/08/01 03:32:34;;;;;;;;;;;;;;;;;;6235412;28;19913;-82
2023/08/01 03:35:34;;;;;;;;;;;;;;;;;;6235752;28;19914;-75
2023/08/01 03:38:34;;;;;;;;;;;;;;;;;;6222162;28;19913;-75
2023/08/01 03:41:34;;;;;;;;;;;;;;;;;;6218683;28;20339;-74
2023/08/01 03:44:34;;;;;;;;;;;;;;;;;;6215044;28;19909;-82
2023/08/01 03:47:34;;;;;;;;;;;;;;;;;;6231704;28;19910;-84
2023/08/01 03:50:35;;;;;;;;;;;;;;;;;;6238733;28;19942;-85
2023/08/01 03:53:36;;;;;;;;;;;;;;;;;;6239656;28;19914;-84
2023/08/01 03:56:36;;;;;;;;;;;;;;;;;;6238433;28;20090;-84
2023/08/01 03:59:36;;;;;;;;;;;;;;;;;;6242109;28;20196;-83
2023/08/01 04:02:36;;;;;;;;;;;;;;;;;;6235311;28;19912;-87
2023/08/01 04:05:36;;;;;;;;;;;;;;;;;;6261735;28;19924;-85
2023/08/01 04:08:36;;;;;;;;;;;;;;;;;;6257281;28;19909;-87
2023/08/01 04:11:36;;;;;;;;;;;;;;;;;;6264404;28;19924;-86
2023/08/01 04:14:36;;;;;;;;;;;;;;;;;;6277762;28;19924;-85
2023/08/01 04:17:36;;;;;;;;;;;;;;;;;;6261460;28;19913;-86
2023/08/01 04:20:37;;;;;;;;;;;;;;;;;;6260949;28;20596;-84
2023/08/01 04:23:37;;;;;;;;;;;;;;;;;;6260407;28;20435;-84
2023/08/01 04:26:37;;;;;;;;;;;;;;;;;;6256083;28;19917;-86
2023/08/01 04:29:37;;;;;;;;;;;;;;;;;;6258032;28;19913;-84
2023/08/01 04:32:37;;;;;;;;;;;;;;;;;;6233007;28;20452;-83
2023/08/01 04:35:37;;;;;;;;;;;;;;;;;;6259890;28;19963;-86
2023/08/01 04:38:37;;;;;;;;;;;;;;;;;;6276352;28;19995;-85
2023/08/01 04:41:39;;;;;;;;;;;;;;;;;;6258723;28;19963;-84
2023/08/01 04:44:39;;;;;;;;;;;;;;;;;;6267243;28;19916;-75
2023/08/01 04:47:39;;;;;;;;;;;;;;;;;;6250937;28;19909;-75
2023/08/01 04:50:39;;;;;;;;;;;;;;;;;;6238639;28;19908;-73
2023/08/01 04:53:39;;;;;;;;;;;;;;;;;;6230038;28;19995;-75
2023/08/01 04:56:39;;;;;;;;;;;;;;;;;;6235751;28;20405;-75
2023/08/01 04:59:39;;;;;;;;;;;;;;;;;;6240306;28;19915;-75
2023/08/01 05:02:39;;;;;;;;;;;;;;;;;;6243413;28;19913;-76
2023/08/01 05:05:39;;;;;;;;;;;;;;;;;;6239175;28;19921;-85
2023/08/01 05:08:40;;;;;;;;;;;;;;;;;;6245916;28;19917;-88
2023/08/01 05:11:40;;;;;;;;;;;;;;;;;;6240874;28;19913;-87
2023/08/01 05:14:40;;;;;;;;;;;;;;;;;;6243384;28;19913;-88
2023/08/01 05:17:40;;;;;;;;;;;;;;;;;;6240648;28;19917;-87
2023/08/01 05:20:40;;;;;;;;;;;;;;;;;;6248629;28;19917;-88
2023/08/01 05:23:40;;;;;;;;;;;;;;;;;;6248794;28;20015;-85
2023/08/01 05:26:41;;;;;;;;;;;;;;;;;;6228967;28;19909;-88
2023/08/01 05:29:41;;;;;;;;;;;;;;;;;;6239758;28;20323;-87
2023/08/01 05:32:43;;;;;;;;;;;;;;;;;;6244197;28;19912;-88
2023/08/01 05:35:43;;;;;;;;;;;;;;;;;;6243433;28;19913;-87
2023/08/01 05:38:43;;;;;;;;;;;;;;;;;;6247782;28;20437;-85
2023/08/01 05:41:43;;;;;;;;;;;;;;;;;;6252733;28;19968;-86
2023/08/01 05:44:43;;;;;;;;;;;;;;;;;;6248757;28;19919;-88
2023/08/01 05:47:43;;;;;;;;;;;;;;;;;;6253833;28;20363;-88
2023/08/01 05:50:44;;;;;;;;;;;;;;;;;;6252909;28;19916;-87
2023/08/01 05:53:44;;;;;;;;;;;;;;;;;;6246452;28;19909;-87
2023/08/01 05:56:44;;;;;;;;;;;;;;;;;;6223194;28;19944;-75
2023/08/01 05:59:44;;;;;;;;;;;;;;;;;;6239142;28;20344;-75
2023/08/01 06:02:44;;;;;;;;;;;;;;;;;;6237797;28;19921;-75
2023/08/01 06:05:44;;;;;;;;;;;;;;;;;;6239176;28;19928;-75
2023/08/01 06:08:44;;;;;;;;;;;;;;;;;;6242069;28;20019;-75
2023/08/01 06:11:45;;;;;;;;;;;;;;;;;;6241717;28;20292;-75
2023/08/01 06:14:47;;;;;;;;;;;;;;;;;;6243776;28;19913;-76
2023/08/01 06:17:47;;;;;;;;;;;;;;;;;;6231469;28;19915;-76
2023/08/01 06:20:47;;;;;;;;;;;;;;;;;;6236620;28;19917;-76
2023/08/01 06:23:47;;;;;;;;;;;;;;;;;;6238898;28;19913;-75
2023/08/01 06:26:47;;;;;;;;;;;;;;;;;;6235653;28;19913;-75
2023/08/01 06:29:47;;;;;;;;;;;;;;;;;;6229758;28;19996;-77
2023/08/01 06:32:47;;;;;;;;;;;;;;;;;;6239094;28;19913;-76
2023/08/01 06:35:47;;;;;;;;;;;;;;;;;;6230811;28;19975;-76
2023/08/01 06:38:47;;;;;;;;;;;;;;;;;;6237229;28;19909;-73
2023/08/01 06:41:47;;;;;;;;;;;;;;;;;;6241515;28;19912;-75
2023/08/01 06:44:48;;;;;;;;;;;;;;;;;;6240497;28;19914;-74
2023/08/01 06:47:48;;;;;;;;;;;;;;;;;;6241883;28;20708;-75
2023/08/01 06:50:48;;;;;;;;;;;;;;;;;;6242782;28;19909;-75
2023/08/01 06:53:48;;;;;;;;;;;;;;;;;;6218312;28;19992;-75
2023/08/01 06:56:48;;;;;;;;;;;;;;;;;;6235462;28;19906;-76
2023/08/01 06:59:48;;;;;;;;;;;;;;;;;;6223875;28;20359;-74
2023/08/01 07:02:48;;;;;;;;;;;;;;;;;;6236436;28;19912;-75
2023/08/01 07:05:48;;;;;;;;;;;;;;;;;;6251308;28;19929;-89
2023/08/01 07:08:48;;;;;;;;;;;;;;;;;;6243318;28;19905;-89
2023/08/01 07:11:49;;;;;;;;;;;;;;;;;;6242397;28;19917;-90
2023/08/01 07:14:49;;;;;;;;;;;;;;;;;;6242190;28;20082;-84
2023/08/01 07:17:49;;;;;;;;;;;;;;;;;;6243727;28;19920;-87
2023/08/01 07:20:49;;;;;;;;;;;;;;;;;;6247279;28;20389;-90
2023/08/01 07:23:49;;;;;;;;;;;;;;;;;;6252807;28;19980;-89
2023/08/01 07:26:49;;;;;;;;;;;;;;;;;;6248751;28;19966;-75
2023/08/01 07:29:49;;;;;;;;;;;;;;;;;;6245180;28;20344;-75
2023/08/01 07:32:49;;;;;;;;;;;;;;;;;;6244371;28;19917;-75
2023/08/01 07:35:50;;;;;;;;;;;;;;;;;;6244103;28;20208;-75
2023/08/01 07:38:51;;;;;;;;;;;;;;;;;;6245128;28;19912;-75
2023/08/01 07:41:51;;;;;;;;;;;;;;;;;;6234821;28;19916;-75
2023/08/01 07:44:51;;;;;;;;;;;;;;;;;;6242655;28;19913;-75
2023/08/01 07:47:51;;;;;;;;;;;;;;;;;;6243859;28;19917;-75
2023/08/01 07:50:51;;;;;;;;;;;;;;;;;;6244116;28;19916;-75
2023/08/01 07:53:52;;;;;;;;;;;;;;;;;;6242308;28;20470;-76
2023/08/01 07:56:52;;;;;;;;;;;;;;;;;;6251865;28;19913;-75
2023/08/01 07:59:52;;;;;;;;;;;;;;;;;;6238898;28;19909;-75
2023/08/01 08:02:52;;;;;;;;;;;;;;;;;;6239454;28;19945;-75
2023/08/01 08:05:52;;;;;;;;;;;;;;;;;;6241450;28;19929;-75
2023/08/01 08:08:52;;;;;;;;;;;;;;;;;;6239716;28;20039;-75
2023/08/01 08:11:52;;;;;;;;;;;;;;;;;;6236173;28;20379;-75
2023/08/01 08:14:53;;;;;;;;;;;;;;;;;;6238848;28;19917;-89
2023/08/01 08:17:53;;;;;;;;;;;;;;;;;;6246556;28;19924;-87
2023/08/01 08:20:53;;;;;;;;;;;;;;;;;;6247696;28;20023;-89
2023/08/01 08:23:53;;;;;;;;;;;;;;;;;;6243018;28;20268;-86
2023/08/01 08:26:53;;;;;;;;;;;;;;;;;;6237853;28;20007;-85
2023/08/01 08:29:53;;;;;;;;;;;;;;;;;;6240803;28;19909;-85
2023/08/01 08:32:53;;;;;;;;;;;;;;;;;;6240934;28;19923;-85
2023/08/01 08:35:53;;;;;;;;;;;;;;;;;;6241051;28;19909;-75
2023/08/01 08:38:54;;;;;;;;;;;;;;;;;;6237596;28;19913;-75
2023/08/01 08:41:54;;;;;;;;;;;;;;;;;;6244202;28;19912;-76
2023/08/01 08:44:54;;;;;;;;;;;;;;;;;;6240393;28;19976;-88
2023/08/01 08:47:54;;;;;;;;;;;;;;;;;;6255741;28;19909;-87
2023/08/01 08:50:55;;;;;;;;;;;;;;;;;;6254594;28;19932;-86
2023/08/01 08:53:55;;;;;;;;;;;;;;;;;;6244306;28;20013;-85
2023/08/01 08:56:55;;;;;;;;;;;;;;;;;;6247664;28;19956;-86
2023/08/01 08:59:55;;;;;;;;;;;;;;;;;;6250406;28;20059;-85
2023/08/01 09:02:55;;;;;;;;;;;;;;;;;;6249196;28;20383;-86
2023/08/01 09:05:57;;;;;;;;;;;;;;;;;;6253779;28;19956;-86
2023/08/01 09:08:58;;;;;;;;;;;;;;;;;;6254544;28;19920;-84
2023/08/01 09:11:58;;;;;;;;;;;;;;;;;;6252031;28;19908;-87
2023/08/01 09:14:58;;;;;;;;;;;;;;;;;;6251942;28;19905;-90
2023/08/01 09:18:00;;;;;;;;;;;;;;;;;;6254749;28;20003;-89
2023/08/01 09:21:04;;;;;;;;;;;;;;;;;;6249757;28;19909;-86
2023/08/01 09:24:04;;;;;;;;;;;;;;;;;;6240072;28;19920;-84
2023/08/01 09:27:08;;;;;;;;;;;;;;;;;;6246008;28;20367;-86
2023/08/01 09:30:08;;;;;;;;;;;;;;;;;;6244349;28;20343;-86
2023/08/01 09:33:08;;;;;;;;;;;;;;;;;;6228510;28;19913;-84
2023/08/01 09:36:08;;;;;;;;;;;;;;;;;;6234660;28;20331;-86
2023/08/01 09:39:08;;;;;;;;;;;;;;;;;;6251877;28;19908;-85
2023/08/01 09:42:09;;;;;;;;;;;;;;;;;;6249366;28;19916;-86
2023/08/01 09:45:10;;;;;;;;;;;;;;;;;;6244885;28;19909;-75
2023/08/01 09:48:10;;;;;;;;;;;;;;;;;;6251841;28;19909;-75
2023/08/01 09:51:10;;;;;;;;;;;;;;;;;;6249821;28;20010;-75
2023/08/01 09:54:10;;;;;;;;;;;;;;;;;;6247769;28;20573;-76
2023/08/01 09:57:11;;;;;;;;;;;;;;;;;;6247193;28;19980;-89
2023/08/01 10:00:11;;;;;;;;;;;;;;;;;;6269255;28;19908;-87
2023/08/01 10:03:12;;;;;;;;;;;;;;;;;;6246874;28;20268;-85
2023/08/01 10:06:12;;;;;;;;;;;;;;;;;;6237681;28;20270;-84
2023/08/01 10:09:13;;;;;;;;;;;;;;;;;;6242165;28;20015;-83
2023/08/01 10:12:13;;;;;;;;;;;;;;;;;;6238247;28;20287;-82
2023/08/01 10:15:13;;;;;;;;;;;;;;;;;;6238660;28;19909;-82
2023/08/01 10:18:13;;;;;;;;;;;;;;;;;;6239740;28;19920;-84
2023/08/01 10:21:13;;;;;;;;;;;;;;;;;;6251551;28;20272;-85
2023/08/01 10:24:14;;;;;;;;;;;;;;;;;;6243280;28;19939;-84
2023/08/01 10:27:14;;;;;;;;;;;;;;;;;;6243496;28;19985;-84
2023/08/01 10:30:14;;;;;;;;;;;;;;;;;;6240072;28;19913;-82
2023/08/01 10:33:15;;;;;;;;;;;;;;;;;;6239699;28;20322;-84
2023/08/01 10:36:15;;;;;;;;;;;;;;;;;;6225010;28;19909;-85
2023/08/01 10:39:18;;;;;;;;;;;;;;;;;;6257196;28;19893;-85
2023/08/01 10:42:18;;;;;;;;;;;;;;;;;;6251835;28;19905;-85
2023/08/01 10:45:18;;;;;;;;;;;;;;;;;;6258025;28;19905;-82
2023/08/01 10:48:18;;;;;;;;;;;;;;;;;;6259417;28;19904;-85
2023/08/01 10:51:18;;;;;;;;;;;;;;;;;;6246960;28;19895;-84
2023/08/01 10:54:19;;;;;;;;;;;;;;;;;;6257175;28;19995;-84
2023/08/01 10:57:19;;;;;;;;;;;;;;;;;;6232877;28;20280;-84
2023/08/01 11:00:20;;;;;;;;;;;;;;;;;;6245564;28;19916;-87
2023/08/01 11:03:20;;;;;;;;;;;;;;;;;;6247328;28;19909;-88
2023/08/01 11:06:20;;;;;;;;;;;;;;;;;;6251277;28;19952;-87
2023/08/01 11:09:20;;;;;;;;;;;;;;;;;;6251303;28;20260;-89
2023/08/01 11:12:20;;;;;;;;;;;;;;;;;;6253400;28;19909;-88
2023/08/01 11:15:21;;;;;;;;;;;;;;;;;;6246885;28;19913;-87
2023/08/01 11:18:21;;;;;;;;;;;;;;;;;;6241285;28;19912;-87
2023/08/01 11:21:21;;;;;;;;;;;;;;;;;;6247788;28;19916;-87
2023/08/01 11:24:21;;;;;;;;;;;;;;;;;;6250688;28;20004;-88
2023/08/01 11:27:21;;;;;;;;;;;;;;;;;;6248911;28;19920;-89
2023/08/01 11:30:21;;;;;;;;;;;;;;;;;;6246685;28;19913;-86
2023/08/01 11:33:21;;;;;;;;;;;;;;;;;;6243924;28;19916;-88
2023/08/01 11:36:22;;;;;;;;;;;;;;;;;;6249255;28;20414;-86
2023/08/01 11:39:22;;;;;;;;;;;;;;;;;;6244916;28;20426;-84
2023/08/01 11:42:22;;;;;;;;;;;;;;;;;;6247602;28;19963;-84
2023/08/01 11:45:22;;;;;;;;;;;;;;;;;;6248540;28;19909;-84
2023/08/01 11:48:23;;;;;;;;;;;;;;;;;;6249731;28;19908;-86
2023/08/01 11:51:23;;;;;;;;;;;;;;;;;;6253331;28;19913;-83
2023/08/01 11:54:23;;;;;;;;;;;;;;;;;;6250278;28;19913;-83
2023/08/01 11:57:23;;;;;;;;;;;;;;;;;;6252545;28;19909;-82
2023/08/01 12:00:23;;;;;;;;;;;;;;;;;;6250928;28;19916;-84
2023/08/01 12:03:23;;;;;;;;;;;;;;;;;;6252511;28;19909;-86
2023/08/01 12:06:24;;;;;;;;;;;;;;;;;;6252418;28;19920;-79
2023/08/01 12:09:25;;;;;;;;;;;;;;;;;;6241080;28;20292;-86
2023/08/01 12:12:25;;;;;;;;;;;;;;;;;;6248738;28;19920;-87
2023/08/01 12:15:25;;;;;;;;;;;;;;;;;;6231970;28;19953;-75
2023/08/01 12:18:25;;;;;;;;;;;;;;;;;;6242284;28;19917;-75
2023/08/01 12:21:25;;;;;;;;;;;;;;;;;;6239748;28;20318;-76
2023/08/01 12:24:25;;;;;;;;;;;;;;;;;;6239411;28;19913;-76
2023/08/01 12:27:25;;;;;;;;;;;;;;;;;;6249504;28;19913;-86
2023/08/01 12:30:25;;;;;;;;;;;;;;;;;;6235156;28;20332;-81
2023/08/01 12:33:25;;;;;;;;;;;;;;;;;;6231958;28;19975;-81
2023/08/01 12:36:26;;;;;;;;;;;;;;;;;;6227243;28;19913;-78
2023/08/01 12:39:26;;;;;;;;;;;;;;;;;;6238624;28;19920;-76
2023/08/01 12:42:26;;;;;;;;;;;;;;;;;;6241185;28;20678;-77
2023/08/01 12:45:27;;;;;;;;;;;;;;;;;;6242424;28;19909;-78
2023/08/01 12:48:27;;;;;;;;;;;;;;;;;;6241733;28;20383;-77
2023/08/01 12:51:27;;;;;;;;;;;;;;;;;;6240642;28;19955;-77
2023/08/01 12:54:27;;;;;;;;;;;;;;;;;;6235917;28;19962;-77
2023/08/01 12:57:27;;;;;;;;;;;;;;;;;;6244615;28;20497;-76
2023/08/01 13:00:30;;;;;;;;;;;;;;;;;;6241975;28;20016;-77
2023/08/01 13:03:30;;;;;;;;;;;;;;;;;;6241334;28;19944;-76
2023/08/01 13:06:31;;;;;;;;;;;;;;;;;;6252232;28;19929;-77
2023/08/01 13:09:31;;;;;;;;;;;;;;;;;;6256167;28;19916;-76
2023/08/01 13:12:31;;;;;;;;;;;;;;;;;;6245994;28;19919;-77
2023/08/01 13:15:31;;;;;;;;;;;;;;;;;;6244727;28;19909;-76
2023/08/01 13:18:31;;;;;;;;;;;;;;;;;;6243765;28;19909;-76
2023/08/01 13:21:32;;;;;;;;;;;;;;;;;;6226180;28;19905;-77
2023/08/01 13:24:32;;;;;;;;;;;;;;;;;;6233122;28;20029;-81
2023/08/01 13:27:32;;;;;;;;;;;;;;;;;;6247054;28;20561;-80
2023/08/01 13:30:32;;;;;;;;;;;;;;;;;;6239598;28;19915;-83
2023/08/01 13:33:33;;;;;;;;;;;;;;;;;;6250399;28;19915;-84
2023/08/01 13:36:33;;;;;;;;;;;;;;;;;;6242767;28;20411;-82
2023/08/01 13:39:33;;;;;;;;;;;;;;;;;;6245586;28;19912;-84
2023/08/01 13:42:34;;;;;;;;;;;;;;;;;;6246429;28;19916;-83
2023/08/01 13:45:35;;;;;;;;;;;;;;;;;;6248942;28;20421;-83
2023/08/01 13:48:35;;;;;;;;;;;;;;;;;;6241525;28;19913;-83
2023/08/01 13:51:35;;;;;;;;;;;;;;;;;;6243414;28;19987;-83
2023/08/01 13:54:35;;;;;;;;;;;;;;;;;;6242135;28;19909;-82
2023/08/01 13:57:35;;;;;;;;;;;;;;;;;;6241400;28;19917;-82
2023/08/01 14:00:36;;;;;;;;;;;;;;;;;;6241052;28;19920;-87
2023/08/01 14:03:36;;;;;;;;;;;;;;;;;;6253578;28;19956;-86
2023/08/01 14:06:36;;;;;;;;;;;;;;;;;;6242301;28;20322;-83
2023/08/01 14:09:37;;;;;;;;;;;;;;;;;;6239572;28;19920;-85
2023/08/01 14:12:37;;;;;;;;;;;;;;;;;;6250706;28;19924;-86
2023/08/01 14:15:37;;;;;;;;;;;;;;;;;;6240326;28;19917;-80
2023/08/01 14:18:37;;;;;;;;;;;;;;;;;;6249816;28;19944;-84
2023/08/01 14:21:38;;;;;;;;;;;;;;;;;;6244263;28;19913;-82
2023/08/01 14:24:38;;;;;;;;;;;;;;;;;;6244152;28;19913;-83
2023/08/01 14:27:38;;;;;;;;;;;;;;;;;;6240831;28;19912;-81
2023/08/01 14:30:38;;;;;;;;;;;;;;;;;;6234613;28;19996;-77
2023/08/01 14:33:38;;;;;;;;;;;;;;;;;;6239072;28;19913;-79
2023/08/01 14:36:38;;;;;;;;;;;;;;;;;;6247311;28;19959;-79
2023/08/01 14:39:40;;;;;;;;;;;;;;;;;;6254629;28;20275;-81
2023/08/01 14:42:40;;;;;;;;;;;;;;;;;;6241548;28;20007;-80
2023/08/01 14:45:40;;;;;;;;;;;;;;;;;;6237694;28;19913;-83
2023/08/01 14:48:42;;;;;;;;;;;;;;;;;;6239242;28;20292;-82
2023/08/01 14:51:42;;;;;;;;;;;;;;;;;;6249053;28;19952;-81
2023/08/01 14:54:43;;;;;;;;;;;;;;;;;;6244462;28;19917;-81
2023/08/01 14:57:43;;;;;;;;;;;;;;;;;;6256524;28;20315;-80
2023/08/01 15:00:43;;;;;;;;;;;;;;;;;;6250567;28;20050;-81
2023/08/01 15:03:43;;;;;;;;;;;;;;;;;;6244042;28;19908;-82
2023/08/01 15:06:44;;;;;;;;;;;;;;;;;;6242532;28;19912;-82
2023/08/01 15:09:44;;;;;;;;;;;;;;;;;;6239385;28;19959;-81
2023/08/01 15:12:45;;;;;;;;;;;;;;;;;;6237584;28;19920;-83
2023/08/01 15:15:45;;;;;;;;;;;;;;;;;;6240424;28;20314;-80
2023/08/01 15:18:45;;;;;;;;;;;;;;;;;;6242996;28;20382;-80
2023/08/01 15:21:46;;;;;;;;;;;;;;;;;;6240353;28;19913;-79
2023/08/01 15:24:46;;;;;;;;;;;;;;;;;;6240454;28;19913;-81
2023/08/01 15:27:46;;;;;;;;;;;;;;;;;;6245935;28;20004;-81
2023/08/01 15:30:46;;;;;;;;;;;;;;;;;;6235081;28;20655;-82
2023/08/01 15:33:46;;;;;;;;;;;;;;;;;;6236480;28;19917;-81
2023/08/01 15:36:47;;;;;;;;;;;;;;;;;;6237021;28;20103;-83
2023/08/01 15:39:47;;;;;;;;;;;;;;;;;;6241352;28;19913;-85
2023/08/01 15:42:48;;;;;;;;;;;;;;;;;;6234381;28;19913;-84
2023/08/01 15:45:48;;;;;;;;;;;;;;;;;;6242474;28;19917;-77
2023/08/01 15:48:49;;;;;;;;;;;;;;;;;;6246485;28;19905;-75
2023/08/01 15:51:49;;;;;;;;;;;;;;;;;;6242840;28;19955;-78
2023/08/01 15:54:50;;;;;;;;;;;;;;;;;;6243986;28;19909;-77
2023/08/01 15:57:50;;;;;;;;;;;;;;;;;;6245058;28;19940;-77
2023/08/01 16:00:50;;;;;;;;;;;;;;;;;;6234544;28;19932;-78
2023/08/01 16:03:50;;;;;;;;;;;;;;;;;;6248140;28;20019;-77
2023/08/01 16:06:50;;;;;;;;;;;;;;;;;;6259433;28;19919;-81
2023/08/01 16:09:50;;;;;;;;;;;;;;;;;;6246122;28;19909;-83
2023/08/01 16:12:50;;;;;;;;;;;;;;;;;;6250045;28;19912;-83
2023/08/01 16:15:50;;;;;;;;;;;;;;;;;;6237346;28;19913;-76
2023/08/01 16:18:50;;;;;;;;;;;;;;;;;;6245378;28;20062;-76
2023/08/01 16:21:51;;;;;;;;;;;;;;;;;;6242803;28;19915;-76
2023/08/01 16:24:51;;;;;;;;;;;;;;;;;;6236020;28;20414;-76
2023/08/01 16:27:51;;;;;;;;;;;;;;;;;;6229316;28;20068;-77
2023/08/01 16:30:51;;;;;;;;;;;;;;;;;;6245221;28;19955;-77
2023/08/01 16:33:52;;;;;;;;;;;;;;;;;;6246891;28;20008;-77
2023/08/01 16:36:52;;;;;;;;;;;;;;;;;;6244937;28;19909;-76
2023/08/01 16:39:52;;;;;;;;;;;;;;;;;;6243971;28;20007;-77
2023/08/01 16:42:52;;;;;;;;;;;;;;;;;;6239796;28;19932;-77
2023/08/01 16:45:53;;;;;;;;;;;;;;;;;;6234025;28;19935;-78
2023/08/01 16:48:53;;;;;;;;;;;;;;;;;;6240054;28;19958;-78
2023/08/01 16:51:53;;;;;;;;;;;;;;;;;;6237035;28;19972;-78
2023/08/01 16:54:53;;;;;;;;;;;;;;;;;;6243114;28;19915;-81
2023/08/01 16:57:53;;;;;;;;;;;;;;;;;;6226809;28;20007;-83
2023/08/01 17:00:54;;;;;;;;;;;;;;;;;;6243502;28;19909;-81
2023/08/01 17:03:54;;;;;;;;;;;;;;;;;;6227091;28;19905;-83
2023/08/01 17:06:54;;;;;;;;;;;;;;;;;;6237136;28;20405;-81
2023/08/01 17:09:54;;;;;;;;;;;;;;;;;;6237262;28;19913;-83
2023/08/01 17:12:54;;;;;;;;;;;;;;;;;;6237759;28;19909;-80
2023/08/01 17:15:54;;;;;;;;;;;;;;;;;;6237919;28;19905;-81
2023/08/01 17:18:54;;;;;;;;;;;;;;;;;;6241089;28;19905;-82
2023/08/01 17:21:54;;;;;;;;;;;;;;;;;;6237590;28;19932;-81
2023/08/01 17:24:55;;;;;;;;;;;;;;;;;;6239204;28;19905;-83
2023/08/01 17:27:56;;;;;;;;;;;;;;;;;;6244733;28;20649;-81
2023/08/01 17:30:56;;;;;;;;;;;;;;;;;;6237504;28;19909;-81
2023/08/01 17:33:58;;;;;;;;;;;;;;;;;;6240276;28;19917;-82
2023/08/01 17:36:58;;;;;;;;;;;;;;;;;;6238063;28;19947;-80
2023/08/01 17:39:58;;;;;;;;;;;;;;;;;;6231954;28;20314;-82
2023/08/01 17:42:58;;;;;;;;;;;;;;;;;;6242284;28;19917;-82
2023/08/01 17:45:58;;;;;;;;;;;;;;;;;;6240990;28;19913;-84
2023/08/01 17:49:00;;;;;;;;;;;;;;;;;;6240601;28;19919;-83
2023/08/01 17:52:00;;;;;;;;;;;;;;;;;;6242545;28;19916;-84
2023/08/01 17:55:00;;;;;;;;;;;;;;;;;;6239633;28;19909;-85
2023/08/01 17:58:00;;;;;;;;;;;;;;;;;;6241633;28;19916;-86
2023/08/01 18:01:00;;;;;;;;;;;;;;;;;;6228148;28;19995;-87
2023/08/01 18:04:00;;;;;;;;;;;;;;;;;;6238203;28;19905;-86
2023/08/01 18:07:00;;;;;;;;;;;;;;;;;;6243745;28;19917;-83
2023/08/01 18:10:00;;;;;;;;;;;;;;;;;;6242881;28;19905;-83
2023/08/01 18:13:01;;;;;;;;;;;;;;;;;;6242560;28;19924;-85
2023/08/01 18:16:01;;;;;;;;;;;;;;;;;;6244485;28;19928;-84
2023/08/01 18:19:01;;;;;;;;;;;;;;;;;;6241358;28;19912;-85
2023/08/01 18:22:01;;;;;;;;;;;;;;;;;;6242188;28;19909;-85
2023/08/01 18:25:02;;;;;;;;;;;;;;;;;;6241827;28;19920;-83
2023/08/01 18:28:02;;;;;;;;;;;;;;;;;;6241192;28;20294;-85
2023/08/01 18:31:02;;;;;;;;;;;;;;;;;;6241586;28;19944;-85
2023/08/01 18:34:03;;;;;;;;;;;;;;;;;;6237542;28;19958;-84
2023/08/01 18:37:03;;;;;;;;;;;;;;;;;;6241060;28;19991;-86
2023/08/01 18:40:05;;;;;;;;;;;;;;;;;;6242344;28;19909;-86
2023/08/01 18:43:05;;;;;;;;;;;;;;;;;;6243050;28;19920;-85
2023/08/01 18:46:05;;;;;;;;;;;;;;;;;;6242768;28;19920;-84
2023/08/01 18:49:05;;;;;;;;;;;;;;;;;;6243578;28;19905;-80
2023/08/01 18:52:06;;;;;;;;;;;;;;;;;;6242976;28;20271;-84
2023/08/01 18:55:06;;;;;;;;;;;;;;;;;;6237069;28;20402;-86
2023/08/01 18:58:06;;;;;;;;;;;;;;;;;;6238115;28;19916;-84
2023/08/01 19:01:06;;;;;;;;;;;;;;;;;;6240598;28;19905;-84
2023/08/01 19:04:06;;;;;;;;;;;;;;;;;;6238584;28;19909;-85
2023/08/01 19:07:06;;;;;;;;;;;;;;;;;;6241115;28;20436;-86
2023/08/01 19:10:08;;;;;;;;;;;;;;;;;;6234597;28;19959;-84
2023/08/01 19:13:08;;;;;;;;;;;;;;;;;;6232841;28;19917;-85
2023/08/01 19:16:08;;;;;;;;;;;;;;;;;;6231175;28;19924;-85
2023/08/01 19:19:10;;;;;;;;;;;;;;;;;;6242768;28;20402;-84
2023/08/01 19:22:11;;;;;;;;;;;;;;;;;;6245956;28;19905;-85
2023/08/01 19:25:11;;;;;;;;;;;;;;;;;;6243242;28;19913;-86
2023/08/01 19:28:11;;;;;;;;;;;;;;;;;;6242287;28;20441;-85
2023/08/01 19:31:11;;;;;;;;;;;;;;;;;;6247948;28;19909;-86
2023/08/01 19:34:11;;;;;;;;;;;;;;;;;;6233868;28;19914;-86
2023/08/01 19:37:12;;;;;;;;;;;;;;;;;;6246960;28;19928;-85
2023/08/01 19:40:12;;;;;;;;;;;;;;;;;;6243252;28;20370;-85
2023/08/01 19:43:12;;;;;;;;;;;;;;;;;;6236880;28;19914;-85
2023/08/01 19:46:13;;;;;;;;;;;;;;;;;;6237112;28;19913;-84
2023/08/01 19:49:13;;;;;;;;;;;;;;;;;;6244876;28;19909;-84
2023/08/01 19:52:13;;;;;;;;;;;;;;;;;;6242427;28;19914;-85
2023/08/01 19:55:13;;;;;;;;;;;;;;;;;;6236335;28;19913;-85
2023/08/01 19:58:13;;;;;;;;;;;;;;;;;;6243736;28;19909;-85
2023/08/01 20:01:13;;;;;;;;;;;;;;;;;;6247736;28;19905;-85
2023/08/01 20:04:14;;;;;;;;;;;;;;;;;;6244044;28;19909;-84
2023/08/01 20:07:16;;;;;;;;;;;;;;;;;;6243188;28;19979;-78
2023/08/01 20:10:19;;;;;;;;;;;;;;;;;;6245776;28;19941;-79
2023/08/01 20:13:19;;;;;;;;;;;;;;;;;;6237367;28;20272;-78
2023/08/01 20:16:19;;;;;;;;;;;;;;;;;;6240226;28;20068;-78
2023/08/01 20:19:20;;;;;;;;;;;;;;;;;;6239941;28;19982;-78
2023/08/01 20:22:20;;;;;;;;;;;;;;;;;;6242974;28;20003;-78
2023/08/01 20:25:20;;;;;;;;;;;;;;;;;;6237806;28;20346;-77
2023/08/01 20:28:20;;;;;;;;;;;;;;;;;;6233588;28;19951;-78
2023/08/01 20:31:20;;;;;;;;;;;;;;;;;;6227909;28;19959;-79